createdAt,value
2023-04-21T00:03:49.542Z,5.78
2023-04-21T00:08:51.367Z,5.49
2023-04-21T00:13:52.944Z,5.17
2023-04-21T00:18:55.816Z,4.89
2023-04-21T00:23:57.399Z,4.32
2023-04-21T00:28:59.000Z,4.88
2023-04-21T00:34:01.928Z,4.97
2023-04-21T00:39:03.599Z,5.33
2023-04-21T00:44:06.809Z,5.23
2023-04-21T00:49:10.081Z,5.21
2023-04-21T00:54:12.068Z,5.27
2023-04-21T00:59:13.643Z,5.04
2023-04-21T01:04:16.623Z,5.34
2023-04-21T01:09:18.599Z,4.79
2023-04-21T01:14:20.390Z,4.99
2023-04-21T01:19:23.567Z,5.12
2023-04-21T01:24:36.019Z,5.19
2023-04-21T01:29:38.040Z,4.83
2023-04-21T01:34:40.730Z,4.35
2023-04-21T01:39:46.379Z,4.94
2023-04-21T01:44:48.558Z,4.04
2023-04-21T01:49:50.262Z,3.86
2023-04-21T01:54:53.211Z,4.09
2023-04-21T01:59:54.767Z,4.59
2023-04-21T02:04:56.334Z,4.87
2023-04-21T02:09:59.375Z,4.53
2023-04-21T02:15:00.966Z,4.50
2023-04-21T02:20:03.969Z,4.82
2023-04-21T02:25:08.003Z,5.06
2023-04-21T02:30:09.996Z,4.95
2023-04-21T02:35:11.568Z,4.92
2023-04-21T02:40:14.494Z,4.88
2023-04-21T02:45:16.201Z,4.97
2023-04-21T02:50:17.759Z,4.78
2023-04-21T02:55:20.763Z,4.78
2023-04-21T03:00:22.527Z,4.93
2023-04-21T03:05:24.113Z,4.74
2023-04-21T03:10:27.053Z,3.99
2023-04-21T03:15:28.680Z,3.97
2023-04-21T03:20:30.261Z,4.38
2023-04-21T03:25:33.324Z,4.07
2023-04-21T03:30:34.882Z,4.29
2023-04-21T03:35:36.449Z,4.10
2023-04-21T03:40:39.340Z,4.36
2023-04-21T03:45:40.899Z,4.38
2023-04-21T03:50:42.433Z,4.18
2023-04-21T03:55:45.319Z,3.52
2023-04-21T04:00:46.856Z,2.64
2023-04-21T04:05:48.512Z,3.08
2023-04-21T04:10:51.499Z,3.51
2023-04-21T04:15:53.388Z,3.80
2023-04-21T04:20:54.998Z,3.65
2023-04-21T04:25:57.939Z,3.87
2023-04-21T04:30:59.561Z,3.64
2023-04-21T04:36:01.114Z,3.12
2023-04-21T04:41:04.314Z,2.82
2023-04-21T04:46:06.164Z,2.84
2023-04-21T04:51:07.747Z,2.74
2023-04-21T04:56:10.708Z,3.39
2023-04-21T05:01:12.951Z,4.02
2023-04-21T05:06:14.614Z,4.13
2023-04-21T05:11:32.635Z,4.29
2023-04-21T05:16:34.418Z,4.64
2023-04-21T05:21:36.196Z,4.49
2023-04-21T05:26:39.089Z,4.71
2023-04-21T05:31:40.711Z,4.69
2023-04-21T05:36:42.415Z,4.71
2023-04-21T05:41:45.359Z,4.80
2023-04-21T05:46:46.988Z,4.72
2023-04-21T05:51:48.588Z,4.52
2023-04-21T05:56:51.581Z,4.58
2023-04-21T06:01:53.234Z,4.72
2023-04-21T06:06:54.859Z,4.47
2023-04-21T06:11:57.818Z,4.27
2023-04-21T06:16:59.472Z,4.07
2023-04-21T06:22:01.058Z,3.99
2023-04-21T06:27:04.278Z,4.40
2023-04-21T06:32:06.053Z,4.24
2023-04-21T06:37:07.812Z,4.55
2023-04-21T06:42:10.920Z,5.01
2023-04-21T06:47:12.592Z,5.04
2023-04-21T06:52:17.737Z,4.58
2023-04-21T06:57:22.091Z,4.64
2023-04-21T07:02:25.994Z,4.66
2023-04-21T07:07:27.675Z,4.93
2023-04-21T07:12:30.757Z,5.09
2023-04-21T07:17:32.480Z,5.87
2023-04-21T07:22:34.219Z,6.23
2023-04-21T07:27:37.402Z,6.51
2023-04-21T07:32:39.175Z,7.25
2023-04-21T07:37:40.953Z,7.59
2023-04-21T07:48:01.681Z,7.58
2023-04-21T07:53:03.625Z,7.33
2023-04-21T07:58:09.211Z,7.18
2023-04-21T08:03:13.365Z,8.30
2023-04-21T08:08:15.218Z,9.02
2023-04-21T08:13:20.821Z,9.00
2023-04-21T08:18:29.892Z,9.23
2023-04-21T08:23:32.902Z,9.39
2023-04-21T08:28:36.032Z,9.24
2023-04-21T08:33:46.759Z,8.24
2023-04-21T08:44:57.000Z,10.75
2023-04-21T08:49:59.516Z,10.50
2023-04-21T08:55:03.991Z,10.39
2023-04-21T09:00:08.686Z,10.68
2023-04-21T09:05:10.901Z,10.96
2023-04-21T09:10:13.143Z,11.33
2023-04-21T09:15:18.367Z,11.16
2023-04-21T09:20:21.944Z,10.16
2023-04-21T09:25:23.772Z,9.64
2023-04-21T09:30:27.242Z,9.68
2023-04-21T09:35:29.105Z,9.74
2023-04-21T09:40:32.044Z,9.57
2023-04-21T09:45:41.035Z,10.00
2023-04-21T09:51:11.419Z,9.72
2023-04-21T09:56:10.939Z,9.28
2023-04-21T10:01:33.164Z,9.85
2023-04-21T10:06:34.961Z,10.54
2023-04-21T10:11:37.145Z,10.19
2023-04-21T10:16:40.403Z,10.07
2023-04-21T10:21:42.726Z,10.48
2023-04-21T10:26:46.753Z,10.83
2023-04-21T10:31:57.434Z,10.03
2023-04-21T10:37:16.591Z,10.54
2023-04-21T10:42:23.097Z,10.70
2023-04-21T10:47:26.612Z,11.16
2023-04-21T10:52:32.887Z,11.07
2023-04-21T10:57:36.676Z,11.53
2023-04-21T11:02:41.780Z,11.90
2023-04-21T11:07:45.803Z,11.83
2023-04-21T11:12:47.467Z,12.00
2023-04-21T11:17:50.495Z,11.28
2023-04-21T11:23:00.165Z,12.51
2023-04-21T11:28:01.867Z,12.18
2023-04-21T11:33:04.942Z,12.69
2023-04-21T11:38:08.653Z,12.65
2023-04-21T11:43:10.327Z,12.36
2023-04-21T11:48:17.845Z,12.92
2023-04-21T11:59:25.552Z,12.72
2023-04-21T12:04:31.516Z,13.18
2023-04-21T12:09:38.904Z,13.10
2023-04-21T12:14:47.733Z,12.97
2023-04-21T12:19:50.792Z,13.13
2023-04-21T12:24:52.394Z,13.23
2023-04-21T12:29:56.637Z,13.10
2023-04-21T12:34:59.590Z,13.20
2023-04-21T12:40:01.331Z,13.53
2023-04-21T12:45:21.429Z,13.89
2023-04-21T12:50:28.813Z,13.93
2023-04-21T12:55:30.525Z,14.26
2023-04-21T13:00:32.147Z,14.21
2023-04-21T13:05:44.163Z,14.31
2023-04-21T13:10:50.131Z,14.35
2023-04-21T13:15:51.754Z,14.54
2023-04-21T13:20:54.836Z,14.64
2023-04-21T13:25:56.530Z,14.30
2023-04-21T13:30:58.378Z,14.97
2023-04-21T13:36:01.891Z,15.14
2023-04-21T13:41:03.629Z,14.96
2023-04-21T13:46:05.662Z,15.17
2023-04-21T13:51:08.770Z,15.33
2023-04-21T13:56:11.328Z,15.42
2023-04-21T14:01:13.842Z,15.35
2023-04-21T14:06:25.027Z,15.45
2023-04-21T14:11:30.689Z,15.46
2023-04-21T14:16:32.455Z,15.24
2023-04-21T14:21:35.681Z,15.59
2023-04-21T14:26:37.378Z,15.78
2023-04-21T14:31:39.152Z,15.54
2023-04-21T14:36:42.463Z,14.94
2023-04-21T14:41:46.764Z,15.48
2023-04-21T14:47:00.761Z,15.97
2023-04-21T14:52:12.067Z,15.93
2023-04-21T15:02:38.203Z,16.13
2023-04-21T15:07:45.096Z,15.81
2023-04-21T15:12:48.969Z,16.02
2023-04-21T15:17:50.568Z,16.31
2023-04-21T15:22:53.654Z,15.66
2023-04-21T15:27:55.290Z,15.66
2023-04-21T15:32:56.910Z,15.48
2023-04-21T15:38:02.552Z,15.38
2023-04-21T15:43:05.287Z,15.38
2023-04-21T15:48:06.921Z,15.29
2023-04-21T15:53:10.059Z,15.42
2023-04-21T15:58:18.990Z,15.47
2023-04-21T16:03:23.449Z,15.29
2023-04-21T16:08:26.856Z,15.23
2023-04-21T16:13:28.852Z,15.51
2023-04-21T16:18:30.633Z,15.49
2023-04-21T16:23:42.568Z,15.80
2023-04-21T16:28:47.071Z,15.86
2023-04-21T16:33:48.707Z,15.89
2023-04-21T16:38:51.734Z,15.87
2023-04-21T16:43:55.891Z,15.69
2023-04-21T16:48:57.628Z,15.82
2023-04-21T16:54:00.717Z,15.66
2023-04-21T16:59:02.638Z,15.65
2023-04-21T17:04:04.413Z,15.58
2023-04-21T17:09:07.931Z,15.49
2023-04-21T17:14:09.519Z,15.05
2023-04-21T17:19:11.166Z,14.59
2023-04-21T17:24:14.166Z,14.81
2023-04-21T17:29:15.909Z,14.77
2023-04-21T17:34:17.513Z,14.33
2023-04-21T17:39:20.521Z,14.81
2023-04-21T17:44:22.073Z,15.16
2023-04-21T17:49:31.070Z,14.92
2023-04-21T17:54:34.213Z,15.14
2023-04-21T17:59:38.006Z,15.00
2023-04-21T18:04:42.642Z,15.09
2023-04-21T18:09:48.844Z,15.02
2023-04-21T18:14:50.676Z,14.02
2023-04-21T18:19:52.289Z,13.65
2023-04-21T18:25:00.763Z,13.37
2023-04-21T18:30:02.371Z,13.03
2023-04-21T18:35:05.708Z,13.24
2023-04-21T18:40:10.358Z,13.30
2023-04-21T18:45:12.072Z,13.45
2023-04-21T18:50:13.799Z,13.68
2023-04-21T18:55:17.392Z,13.71
2023-04-21T19:00:19.356Z,13.55
2023-04-21T19:05:29.650Z,13.81
2023-04-21T19:10:34.129Z,13.55
2023-04-21T19:15:35.863Z,13.21
2023-04-21T19:20:37.509Z,12.94
2023-04-21T19:25:40.749Z,12.77
2023-04-21T19:30:51.072Z,12.82
2023-04-21T19:35:52.754Z,12.52
2023-04-21T19:40:57.187Z,12.56
2023-04-21T19:45:58.951Z,13.03
2023-04-21T19:51:00.567Z,12.90
2023-04-21T19:56:03.530Z,12.96
2023-04-21T20:01:06.956Z,13.03
2023-04-21T20:06:08.755Z,12.98
2023-04-21T20:11:13.230Z,12.85
2023-04-21T20:16:17.396Z,12.82
2023-04-21T20:21:19.231Z,13.26
2023-04-21T20:26:22.892Z,13.29
2023-04-21T20:31:24.534Z,13.25
2023-04-21T20:36:28.235Z,13.39
2023-04-21T20:41:33.444Z,13.33
2023-04-21T20:46:35.489Z,12.87
2023-04-21T20:51:40.963Z,12.69
2023-04-21T20:56:44.125Z,12.54
2023-04-21T21:01:48.621Z,12.50
2023-04-21T21:06:50.436Z,12.57
2023-04-21T21:11:55.709Z,12.19
2023-04-21T21:16:57.403Z,12.22
2023-04-21T21:21:59.104Z,12.44
2023-04-21T21:27:02.192Z,12.70
2023-04-21T21:32:11.105Z,12.51
2023-04-21T21:37:12.889Z,12.48
2023-04-21T21:42:16.010Z,12.35
2023-04-21T21:47:20.425Z,12.61
2023-04-21T21:52:22.078Z,12.69
2023-04-21T21:57:25.080Z,12.52
2023-04-21T22:02:26.848Z,12.66
2023-04-21T22:07:28.575Z,12.74
2023-04-21T22:12:33.076Z,12.76
2023-04-21T22:17:34.784Z,12.72
2023-04-21T22:22:37.651Z,12.49
2023-04-21T22:27:42.027Z,12.80
2023-04-21T22:32:43.859Z,12.87
2023-04-21T22:37:45.502Z,12.79
2023-04-21T22:42:48.648Z,12.87
2023-04-21T22:47:50.409Z,12.79
2023-04-21T22:52:52.090Z,12.67
2023-04-21T22:57:57.667Z,12.43
2023-04-21T23:02:59.534Z,12.51
2023-04-21T23:08:01.618Z,12.44
2023-04-21T23:13:04.556Z,12.39
2023-04-21T23:18:06.381Z,12.64
2023-04-21T23:23:08.019Z,12.52
2023-04-21T23:28:12.878Z,12.47
2023-04-21T23:33:14.619Z,12.41
2023-04-21T23:38:19.520Z,12.41
2023-04-21T23:43:22.547Z,12.20
2023-04-21T23:48:24.316Z,12.32
2023-04-21T23:53:33.375Z,12.28
2023-04-21T23:58:36.445Z,12.16
